createdAt,value
2018-11-06T00:00:26.763Z,10.80
2018-11-06T01:10:38.360Z,10.10
2018-11-06T02:03:27.617Z,9.80
2018-11-06T03:25:38.280Z,9.80
2018-11-06T04:07:53.944Z,9.90
2018-11-06T04:13:34.850Z,9.90
2018-11-06T04:16:03.834Z,10.00
2018-11-06T04:34:22.486Z,10.20
2018-11-06T04:36:50.728Z,10.30
2018-11-06T04:39:18.960Z,10.30
2018-11-06T04:41:47.164Z,10.40
2018-11-06T04:44:15.377Z,10.30
2018-11-06T04:46:43.587Z,10.30
2018-11-06T04:49:11.788Z,10.40
2018-11-06T04:51:39.996Z,10.30
2018-11-06T04:54:08.209Z,10.30
2018-11-06T04:56:36.449Z,10.30
2018-11-06T04:59:04.669Z,10.30
2018-11-06T05:01:32.968Z,10.30
2018-11-06T05:04:01.162Z,10.30
2018-11-06T05:06:29.370Z,10.40
2018-11-06T05:08:57.648Z,10.40
2018-11-06T05:11:25.932Z,10.40
2018-11-06T05:13:54.116Z,10.40
2018-11-06T05:16:22.301Z,10.40
2018-11-06T05:18:50.514Z,10.40
2018-11-06T05:21:18.732Z,10.50
2018-11-06T05:23:46.931Z,10.50
2018-11-06T05:26:15.159Z,10.50
2018-11-06T05:28:43.376Z,10.60
2018-11-06T05:31:11.648Z,10.50
2018-11-06T05:33:39.841Z,10.50
2018-11-06T05:36:08.067Z,10.60
2018-11-06T05:38:36.255Z,10.60
2018-11-06T05:41:05.688Z,10.60
2018-11-06T05:43:34.469Z,10.60
2018-11-06T05:46:02.721Z,10.60
2018-11-06T05:48:31.011Z,10.60
2018-11-06T05:50:59.241Z,10.60
2018-11-06T05:53:27.496Z,10.60
2018-11-06T05:55:55.694Z,10.70
2018-11-06T05:58:23.891Z,10.70
2018-11-06T06:00:52.144Z,10.70
2018-11-06T06:03:20.392Z,10.70
2018-11-06T06:05:48.553Z,10.70
2018-11-06T06:08:16.819Z,10.70
2018-11-06T06:10:45.055Z,10.80
2018-11-06T06:13:13.256Z,10.70
2018-11-06T06:15:41.451Z,10.70
2018-11-06T06:18:09.693Z,10.70
2018-11-06T06:20:37.900Z,10.70
2018-11-06T06:23:06.308Z,10.60
2018-11-06T06:25:34.531Z,10.60
2018-11-06T06:28:02.695Z,10.60
2018-11-06T06:30:30.919Z,10.60
2018-11-06T06:32:59.167Z,10.50
2018-11-06T06:35:27.379Z,10.50
2018-11-06T06:37:55.568Z,10.50
2018-11-06T06:40:23.809Z,10.50
2018-11-06T06:42:52.083Z,10.60
2018-11-06T06:45:20.330Z,10.60
2018-11-06T06:47:48.514Z,10.50
2018-11-06T06:50:17.911Z,10.50
2018-11-06T06:52:46.618Z,10.40
2018-11-06T06:55:15.517Z,10.40
2018-11-06T06:57:44.471Z,10.50
2018-11-06T07:00:16.441Z,10.50
2018-11-06T07:02:44.657Z,10.60
2018-11-06T07:05:15.002Z,10.60
2018-11-06T07:07:43.727Z,10.60
2018-11-06T07:10:13.757Z,10.60
2018-11-06T07:12:43.172Z,10.70
2018-11-06T07:15:12.546Z,10.80
2018-11-06T07:17:41.129Z,10.80
2018-11-06T07:20:11.682Z,10.90
2018-11-06T07:22:39.971Z,11.10
2018-11-06T07:25:09.366Z,11.40
2018-11-06T07:27:37.833Z,11.70
2018-11-06T07:30:08.563Z,11.90
2018-11-06T07:32:36.964Z,12.20
2018-11-06T07:35:06.324Z,12.30
2018-11-06T07:37:34.454Z,12.40
2018-11-06T07:40:02.965Z,12.50
2018-11-06T07:42:31.253Z,12.70
2018-11-06T07:44:59.504Z,12.90
2018-11-06T07:47:28.017Z,12.90
2018-11-06T07:49:56.334Z,13.10
2018-11-06T07:52:24.500Z,13.00
2018-11-06T07:54:52.690Z,12.90
2018-11-06T07:57:20.943Z,12.80
2018-11-06T07:59:49.513Z,12.70
2018-11-06T08:02:17.810Z,12.30
2018-11-06T08:04:46.044Z,12.20
2018-11-06T08:07:14.276Z,12.30
2018-11-06T08:09:42.580Z,12.30
2018-11-06T08:12:10.783Z,12.40
2018-11-06T08:14:39.063Z,12.40
2018-11-06T08:17:07.473Z,12.50
2018-11-06T08:19:35.683Z,12.50
2018-11-06T08:22:03.903Z,12.80
2018-11-06T08:24:32.135Z,12.90
2018-11-06T08:27:00.349Z,12.90
2018-11-06T08:29:28.587Z,13.00
2018-11-06T08:31:57.046Z,12.80
2018-11-06T08:34:25.046Z,13.00
2018-11-06T08:36:53.305Z,13.20
2018-11-06T08:39:21.454Z,13.20
2018-11-06T08:41:49.664Z,13.20
2018-11-06T08:44:17.911Z,13.20
2018-11-06T08:46:46.123Z,13.20
2018-11-06T08:49:14.375Z,13.50
2018-11-06T08:51:42.597Z,13.70
2018-11-06T08:54:10.783Z,13.90
2018-11-06T08:56:39.099Z,13.80
2018-11-06T08:59:07.288Z,13.80
2018-11-06T09:01:35.931Z,13.90
2018-11-06T09:04:04.129Z,14.00
2018-11-06T09:06:32.374Z,14.10
2018-11-06T09:09:00.601Z,14.30
2018-11-06T09:11:28.807Z,14.40
2018-11-06T09:13:57.006Z,14.40
2018-11-06T09:16:25.222Z,14.40
2018-11-06T09:18:53.439Z,14.60
2018-11-06T09:21:21.615Z,14.40
2018-11-06T09:23:49.871Z,14.30
2018-11-06T09:26:18.240Z,14.50
2018-11-06T09:28:46.405Z,14.40
2018-11-06T09:31:14.575Z,14.50
2018-11-06T09:33:42.765Z,14.60
2018-11-06T09:36:11.131Z,14.70
2018-11-06T09:38:39.335Z,14.80
2018-11-06T09:41:07.537Z,15.20
2018-11-06T09:43:35.780Z,15.30
2018-11-06T09:46:04.051Z,15.20
2018-11-06T09:48:32.318Z,15.40
2018-11-06T09:51:00.533Z,15.50
2018-11-06T09:53:28.755Z,15.90
2018-11-06T09:55:56.978Z,16.20
2018-11-06T09:58:25.187Z,16.50
2018-11-06T10:00:53.425Z,16.70
2018-11-06T10:03:21.622Z,16.90
2018-11-06T10:05:49.858Z,16.80
2018-11-06T10:08:18.075Z,16.60
2018-11-06T10:10:46.288Z,16.40
2018-11-06T10:13:14.499Z,16.40
2018-11-06T10:15:42.747Z,16.30
2018-11-06T10:18:10.935Z,16.50
2018-11-06T10:20:39.186Z,16.50
2018-11-06T10:23:07.419Z,16.70
2018-11-06T10:25:35.661Z,16.70
2018-11-06T10:28:03.870Z,16.90
2018-11-06T10:30:32.162Z,17.10
2018-11-06T10:33:00.370Z,17.30
2018-11-06T10:44:42.806Z,17.40
2018-11-06T10:47:23.457Z,17.40
2018-11-06T10:49:58.734Z,17.60
2018-11-06T10:52:56.819Z,17.70
2018-11-06T11:17:49.093Z,18.60
2018-11-06T11:20:20.562Z,18.90
2018-11-06T11:22:58.661Z,19.20
2018-11-06T11:28:40.095Z,19.90
2018-11-06T11:31:12.380Z,20.30
2018-11-06T11:49:32.680Z,20.90
2018-11-06T11:52:07.457Z,21.20
2018-11-06T11:54:44.952Z,21.40
2018-11-06T11:57:23.159Z,21.40
2018-11-06T12:00:28.992Z,21.20
2018-11-06T12:03:10.300Z,21.60
2018-11-06T12:05:46.079Z,21.30
2018-11-06T12:08:16.769Z,21.30
2018-11-06T12:10:55.197Z,20.90
2018-11-06T12:13:29.005Z,21.10
2018-11-06T12:21:37.204Z,22.00
2018-11-06T12:24:40.661Z,22.20
2018-11-06T12:27:25.052Z,21.80
2018-11-06T12:33:12.861Z,21.50
2018-11-06T12:39:29.488Z,21.20
2018-11-06T12:42:06.466Z,21.30
2018-11-06T12:44:44.984Z,21.50
2018-11-06T12:52:23.228Z,20.90
2018-11-06T12:58:09.055Z,21.50
2018-11-06T13:14:02.259Z,21.90
2018-11-06T13:16:37.569Z,22.90
2018-11-06T13:19:08.343Z,23.30
2018-11-06T13:21:43.369Z,23.40
2018-11-06T13:24:19.863Z,23.90
2018-11-06T13:42:39.029Z,24.00
2018-11-06T13:45:26.933Z,22.70
2018-11-06T13:53:36.996Z,22.30
2018-11-06T14:16:03.811Z,19.90
2018-11-06T14:18:34.853Z,19.70
2018-11-06T14:21:10.062Z,19.70
2018-11-06T14:36:37.610Z,19.40
2018-11-06T14:39:09.483Z,19.10
2018-11-06T14:42:09.673Z,19.00
2018-11-06T14:44:40.275Z,19.00
2018-11-06T14:47:13.050Z,19.00
2018-11-06T14:49:41.771Z,18.80
2018-11-06T14:54:45.664Z,18.80
2018-11-06T14:57:14.915Z,18.80
2018-11-06T14:59:44.574Z,18.70
2018-11-06T15:02:20.711Z,18.60
2018-11-06T15:04:52.593Z,18.50
2018-11-06T15:07:26.298Z,18.40
2018-11-06T15:10:03.560Z,18.30
2018-11-06T15:12:32.239Z,18.30
2018-11-06T15:15:01.368Z,18.30
2018-11-06T15:17:30.534Z,18.00
2018-11-06T15:19:59.333Z,18.10
2018-11-06T15:22:30.242Z,17.80
2018-11-06T15:25:00.410Z,17.80
2018-11-06T15:27:40.463Z,17.60
2018-11-06T15:30:14.872Z,17.70
2018-11-06T15:37:23.643Z,17.60
2018-11-06T15:44:32.420Z,17.20
2018-11-06T15:47:10.993Z,17.10
2018-11-06T16:25:50.367Z,16.00
2018-11-06T16:28:29.990Z,15.30
2018-11-06T16:31:02.474Z,15.30
2018-11-06T17:00:38.791Z,14.90
2018-11-06T18:39:59.521Z,14.20
2018-11-06T19:26:24.005Z,13.70
2018-11-06T19:29:03.030Z,13.70
2018-11-06T20:38:58.238Z,13.20
2018-11-06T21:03:10.278Z,13.40
2018-11-06T21:17:13.288Z,13.20
2018-11-06T21:22:58.636Z,13.10
2018-11-06T21:25:56.382Z,13.10
2018-11-06T21:28:54.645Z,13.10
2018-11-06T22:25:23.886Z,12.70
